createdAt,value
2019-03-28T00:02:23.753Z,32.50
2019-03-28T00:04:52.260Z,30.03
2019-03-28T00:07:23.888Z,37.57
2019-03-28T00:09:50.894Z,36.30
2019-03-28T00:12:19.316Z,32.90
2019-03-28T00:14:47.782Z,34.37
2019-03-28T00:17:16.281Z,32.10
2019-03-28T00:19:44.720Z,37.90
2019-03-28T00:22:14.956Z,29.23
2019-03-28T00:24:45.048Z,35.57
2019-03-28T00:27:13.482Z,24.33
2019-03-28T00:29:41.959Z,31.40
2019-03-28T00:32:10.390Z,39.57
2019-03-28T00:34:38.820Z,25.33
2019-03-28T00:37:07.820Z,30.83
2019-03-28T00:39:36.676Z,29.80
2019-03-28T00:42:05.104Z,34.77
2019-03-28T00:44:33.573Z,37.43
2019-03-28T00:47:02.025Z,34.13
2019-03-28T00:49:30.456Z,36.63
2019-03-28T00:51:59.057Z,30.80
2019-03-28T00:54:27.556Z,28.27
2019-03-28T00:56:55.990Z,33.40
2019-03-28T00:59:24.485Z,29.30
2019-03-28T01:01:52.880Z,29.63
2019-03-28T01:04:21.381Z,27.70
2019-03-28T01:06:49.933Z,34.40
2019-03-28T01:09:18.362Z,38.33
2019-03-28T01:11:46.793Z,34.20
2019-03-28T01:14:15.256Z,35.30
2019-03-28T01:16:43.686Z,33.10
2019-03-28T01:19:12.119Z,37.60
2019-03-28T01:21:41.199Z,35.07
2019-03-28T01:24:09.878Z,33.63
2019-03-28T01:26:38.312Z,37.83
2019-03-28T01:29:06.849Z,38.37
2019-03-28T01:31:35.274Z,29.80
2019-03-28T01:34:03.774Z,30.20
2019-03-28T01:36:32.650Z,30.77
2019-03-28T01:39:01.077Z,28.80
2019-03-28T01:41:29.522Z,39.03
2019-03-28T01:43:58.412Z,39.63
2019-03-28T01:46:26.843Z,45.67
2019-03-28T01:48:55.271Z,34.93
2019-03-28T01:51:23.736Z,39.23
2019-03-28T01:53:52.173Z,29.27
2019-03-28T01:56:20.600Z,33.23
2019-03-28T01:58:49.063Z,36.40
2019-03-28T02:01:17.565Z,32.50
2019-03-28T02:03:45.998Z,38.23
2019-03-28T02:06:14.469Z,34.20
2019-03-28T02:08:42.902Z,29.03
2019-03-28T02:11:11.332Z,33.90
2019-03-28T02:13:40.281Z,32.93
2019-03-28T02:16:08.712Z,38.27
2019-03-28T02:18:37.154Z,29.10
2019-03-28T02:21:05.691Z,32.13
2019-03-28T02:23:34.123Z,31.33
2019-03-28T02:26:02.559Z,28.50
2019-03-28T02:28:31.172Z,35.77
2019-03-28T02:30:59.598Z,33.43
2019-03-28T02:33:28.029Z,34.47
2019-03-28T02:35:56.493Z,30.17
2019-03-28T02:38:24.930Z,22.80
2019-03-28T02:40:53.363Z,37.20
2019-03-28T02:43:21.822Z,35.00
2019-03-28T02:45:50.249Z,35.80
2019-03-28T02:48:18.687Z,29.73
2019-03-28T02:50:47.358Z,31.07
2019-03-28T02:53:15.785Z,37.47
2019-03-28T02:55:44.292Z,36.17
2019-03-28T02:58:12.840Z,29.17
2019-03-28T03:00:41.261Z,47.63
2019-03-28T03:03:09.686Z,32.23
2019-03-28T03:05:38.145Z,31.90
2019-03-28T03:08:07.717Z,35.47
2019-03-28T03:10:36.628Z,37.37
2019-03-28T03:13:05.192Z,51.53
2019-03-28T03:15:36.690Z,51.10
2019-03-28T03:18:05.123Z,51.97
2019-03-28T03:20:33.578Z,43.87
2019-03-28T03:23:02.024Z,33.90
2019-03-28T03:25:30.457Z,48.07
2019-03-28T03:27:59.480Z,36.07
2019-03-28T03:30:28.017Z,36.73
2019-03-28T03:32:56.448Z,36.33
2019-03-28T03:35:24.912Z,41.07
2019-03-28T03:37:53.342Z,33.37
2019-03-28T03:40:21.770Z,41.60
2019-03-28T03:42:50.314Z,33.50
2019-03-28T03:45:18.744Z,34.70
2019-03-28T03:47:47.196Z,36.00
2019-03-28T03:50:26.831Z,35.80
2019-03-28T03:52:55.265Z,38.90
2019-03-28T03:55:23.764Z,40.83
2019-03-28T03:57:52.229Z,38.57
2019-03-28T04:00:32.206Z,40.97
2019-03-28T04:03:02.887Z,32.20
2019-03-28T04:05:31.659Z,40.73
2019-03-28T04:08:00.384Z,35.50
2019-03-28T04:10:29.016Z,35.60
2019-03-28T04:12:57.531Z,32.30
2019-03-28T04:15:26.019Z,36.67
2019-03-28T04:17:54.563Z,30.97
2019-03-28T04:20:22.995Z,36.43
2019-03-28T04:22:51.504Z,37.33
2019-03-28T04:25:20.293Z,34.40
2019-03-28T04:27:48.724Z,29.80
2019-03-28T04:30:17.221Z,37.70
2019-03-28T04:32:46.752Z,37.37
2019-03-28T04:35:15.368Z,33.47
2019-03-28T04:37:43.792Z,40.00
2019-03-28T04:40:12.334Z,38.70
2019-03-28T04:42:40.783Z,32.40
2019-03-28T04:45:09.381Z,40.30
2019-03-28T04:47:38.180Z,31.90
2019-03-28T04:50:07.824Z,42.83
2019-03-28T04:52:36.255Z,36.60
2019-03-28T04:55:06.369Z,40.30
2019-03-28T04:57:34.887Z,44.10
2019-03-28T05:00:03.632Z,36.40
2019-03-28T05:02:32.102Z,33.90
2019-03-28T05:05:00.535Z,39.90
2019-03-28T05:07:28.965Z,33.57
2019-03-28T05:09:57.438Z,39.80
2019-03-28T05:12:25.867Z,45.67
2019-03-28T05:14:54.304Z,41.10
2019-03-28T05:17:22.761Z,41.63
2019-03-28T05:19:51.466Z,38.27
2019-03-28T05:22:19.896Z,36.93
2019-03-28T05:24:48.449Z,41.80
2019-03-28T05:27:16.876Z,39.73
2019-03-28T05:29:45.307Z,44.17
2019-03-28T05:32:13.774Z,34.27
2019-03-28T05:34:42.221Z,37.87
2019-03-28T05:37:10.674Z,36.87
2019-03-28T05:39:39.123Z,46.87
2019-03-28T05:42:07.551Z,30.47
2019-03-28T05:44:35.981Z,34.23
2019-03-28T05:47:04.449Z,54.00
2019-03-28T05:49:32.879Z,34.23
2019-03-28T05:52:01.303Z,46.13
2019-03-28T05:54:29.761Z,58.83
2019-03-28T05:56:58.193Z,45.97
2019-03-28T05:59:26.626Z,40.50
2019-03-28T06:01:55.167Z,46.60
2019-03-28T06:04:23.597Z,44.30
2019-03-28T06:06:52.036Z,41.13
2019-03-28T06:09:20.506Z,46.40
2019-03-28T06:11:48.959Z,44.27
2019-03-28T06:14:17.389Z,42.87
2019-03-28T06:16:45.934Z,35.00
2019-03-28T06:19:14.366Z,42.23
2019-03-28T06:21:42.803Z,40.77
2019-03-28T06:24:11.384Z,43.70
2019-03-28T06:26:39.817Z,47.07
2019-03-28T06:29:08.711Z,33.53
2019-03-28T06:31:37.429Z,49.33
2019-03-28T06:34:05.876Z,41.60
2019-03-28T06:36:34.307Z,43.33
2019-03-28T06:39:03.032Z,43.73
2019-03-28T06:41:31.470Z,63.93
2019-03-28T06:43:59.900Z,40.70
2019-03-28T06:46:28.363Z,43.43
2019-03-28T06:48:56.822Z,47.80
2019-03-28T06:51:25.414Z,46.67
2019-03-28T06:53:56.983Z,48.80
2019-03-28T06:56:25.431Z,42.50
2019-03-28T06:58:54.137Z,48.43
2019-03-28T07:01:22.681Z,57.60
2019-03-28T07:03:51.181Z,46.27
2019-03-28T07:06:19.619Z,52.30
2019-03-28T07:08:48.090Z,46.17
2019-03-28T07:11:16.520Z,42.23
2019-03-28T07:13:44.952Z,49.33
2019-03-28T07:16:13.488Z,49.60
2019-03-28T07:18:41.922Z,54.07
2019-03-28T07:21:10.353Z,56.83
2019-03-28T07:23:38.832Z,47.60
2019-03-28T07:26:07.401Z,51.50
2019-03-28T07:28:35.835Z,55.00
2019-03-28T07:31:04.657Z,50.70
2019-03-28T07:33:33.089Z,46.33
2019-03-28T07:36:01.522Z,54.40
2019-03-28T07:38:30.001Z,58.80
2019-03-28T07:40:58.442Z,56.70
2019-03-28T07:43:26.875Z,49.03
2019-03-28T07:45:55.454Z,57.80
2019-03-28T07:48:23.890Z,46.20
2019-03-28T07:50:52.320Z,50.73
2019-03-28T07:53:21.592Z,56.53
2019-03-28T07:55:50.218Z,60.63
2019-03-28T07:58:18.646Z,54.93
2019-03-28T08:00:47.256Z,53.90
2019-03-28T08:03:15.688Z,56.13
2019-03-28T08:05:44.123Z,49.50
2019-03-28T08:08:12.706Z,57.60
2019-03-28T08:10:41.144Z,51.40
2019-03-28T08:13:09.577Z,51.60
2019-03-28T08:15:38.125Z,65.07
2019-03-28T08:18:06.793Z,51.47
2019-03-28T08:20:35.493Z,52.00
2019-03-28T08:23:04.309Z,59.90
2019-03-28T08:25:34.414Z,55.07
2019-03-28T08:28:02.756Z,54.97
2019-03-28T08:30:38.417Z,54.37
2019-03-28T08:33:07.711Z,53.13
2019-03-28T08:35:39.154Z,50.97
2019-03-28T08:38:09.882Z,63.87
2019-03-28T08:40:40.717Z,56.67
2019-03-28T08:43:09.386Z,57.07
2019-03-28T08:45:37.937Z,58.30
2019-03-28T08:48:06.689Z,60.83
2019-03-28T08:50:35.289Z,67.13
2019-03-28T08:53:04.110Z,57.90
2019-03-28T08:55:32.543Z,56.67
2019-03-28T08:58:00.983Z,59.80
2019-03-28T09:00:35.036Z,53.97
2019-03-28T09:02:59.660Z,52.73
2019-03-28T09:05:28.089Z,51.93
2019-03-28T09:07:56.615Z,56.03
2019-03-28T09:10:25.045Z,56.30
2019-03-28T09:12:53.568Z,55.77
2019-03-28T09:15:22.383Z,52.30
2019-03-28T09:17:50.814Z,46.37
2019-03-28T09:20:19.250Z,56.33
2019-03-28T09:22:48.135Z,51.60
2019-03-28T09:25:16.638Z,58.30
2019-03-28T09:27:45.068Z,53.40
2019-03-28T09:30:14.364Z,50.33
2019-03-28T09:32:42.938Z,56.97
2019-03-28T09:35:13.259Z,61.40
2019-03-28T09:37:41.714Z,45.20
2019-03-28T09:40:10.513Z,44.10
2019-03-28T09:42:38.945Z,47.33
2019-03-28T09:45:08.238Z,47.60
2019-03-28T09:47:36.660Z,42.73
2019-03-28T09:50:06.837Z,37.33
2019-03-28T09:52:35.299Z,35.13
2019-03-28T09:55:04.598Z,32.07
2019-03-28T09:57:33.034Z,34.83
2019-03-28T10:00:01.494Z,42.90
2019-03-28T10:02:29.999Z,43.60
2019-03-28T10:04:58.434Z,40.40
2019-03-28T10:07:27.001Z,26.33
2019-03-28T10:09:55.888Z,28.73
2019-03-28T10:12:24.534Z,19.10
2019-03-28T10:14:53.103Z,24.83
2019-03-28T10:17:21.912Z,25.73
2019-03-28T10:19:50.348Z,21.00
2019-03-28T10:22:18.823Z,17.80
2019-03-28T10:24:47.259Z,19.43
2019-03-28T10:27:18.950Z,16.63
2019-03-28T10:29:46.039Z,20.07
2019-03-28T10:32:14.467Z,20.80
2019-03-28T10:34:42.901Z,18.23
2019-03-28T10:37:11.368Z,29.03
2019-03-28T10:39:39.800Z,20.83
2019-03-28T10:42:08.236Z,18.93
2019-03-28T10:44:37.145Z,19.30
2019-03-28T10:47:05.757Z,13.47
2019-03-28T10:49:34.256Z,22.77
2019-03-28T10:52:04.138Z,15.13
2019-03-28T10:54:32.693Z,15.53
2019-03-28T10:57:13.080Z,20.37
2019-03-28T10:59:31.328Z,25.70
2019-03-28T11:01:59.771Z,14.50
2019-03-28T11:04:28.208Z,16.50
2019-03-28T11:06:57.183Z,25.13
2019-03-28T11:09:25.668Z,19.63
2019-03-28T11:11:54.169Z,17.47
2019-03-28T11:14:22.632Z,14.07
2019-03-28T11:16:51.074Z,19.40
2019-03-28T11:19:19.523Z,22.10
2019-03-28T11:21:48.232Z,19.77
2019-03-28T11:24:16.738Z,24.53
2019-03-28T11:26:45.198Z,19.20
2019-03-28T11:29:13.754Z,34.30
2019-03-28T11:31:46.848Z,20.30
2019-03-28T11:34:12.347Z,23.80
2019-03-28T11:36:40.805Z,20.43
2019-03-28T11:39:09.413Z,18.53
2019-03-28T11:41:37.865Z,15.43
2019-03-28T11:44:06.328Z,10.43
2019-03-28T11:46:34.756Z,10.60
2019-03-28T11:49:03.191Z,10.47
2019-03-28T11:51:31.673Z,13.90
2019-03-28T11:54:00.106Z,10.63
2019-03-28T11:56:28.551Z,10.70
2019-03-28T11:58:57.023Z,12.83
2019-03-28T12:01:25.455Z,12.53
2019-03-28T12:03:53.888Z,11.40
2019-03-28T12:06:22.372Z,11.63
2019-03-28T12:08:50.812Z,11.70
2019-03-28T12:11:19.259Z,10.33
2019-03-28T12:13:47.724Z,11.37
2019-03-28T12:16:16.988Z,19.20
2019-03-28T12:18:45.575Z,11.90
2019-03-28T12:21:14.038Z,11.20
2019-03-28T12:23:42.464Z,9.40
2019-03-28T12:26:10.910Z,8.50
2019-03-28T12:28:39.697Z,11.30
2019-03-28T12:31:08.190Z,18.20
2019-03-28T12:33:36.626Z,13.87
2019-03-28T12:36:05.167Z,13.73
2019-03-28T12:38:33.611Z,14.77
2019-03-28T12:41:02.124Z,15.30
2019-03-28T12:43:30.601Z,20.77
2019-03-28T12:45:59.034Z,14.93
2019-03-28T12:48:27.471Z,16.60
2019-03-28T12:50:58.958Z,20.53
2019-03-28T12:53:26.093Z,18.83
2019-03-28T12:55:54.603Z,15.30
2019-03-28T12:58:23.065Z,22.30
2019-03-28T13:00:51.571Z,14.40
2019-03-28T13:03:20.076Z,15.53
2019-03-28T13:05:48.546Z,14.73
2019-03-28T13:08:17.794Z,14.53
2019-03-28T13:10:46.534Z,12.30
2019-03-28T13:13:14.998Z,17.80
2019-03-28T13:15:43.823Z,13.30
2019-03-28T13:18:12.337Z,16.50
2019-03-28T13:20:40.804Z,13.43
2019-03-28T13:23:09.233Z,11.70
2019-03-28T13:25:37.664Z,12.50
2019-03-28T13:28:06.201Z,11.97
2019-03-28T13:30:34.721Z,13.10
2019-03-28T13:33:03.166Z,12.73
2019-03-28T13:35:34.922Z,15.30
2019-03-28T13:38:01.910Z,12.87
2019-03-28T13:40:30.346Z,12.13
2019-03-28T13:42:59.860Z,16.70
2019-03-28T13:45:28.303Z,17.83
2019-03-28T13:47:56.731Z,13.83
2019-03-28T13:50:25.542Z,12.17
2019-03-28T13:52:54.008Z,12.67
2019-03-28T13:55:22.415Z,11.40
2019-03-28T13:57:52.351Z,15.47
2019-03-28T14:00:23.965Z,12.90
2019-03-28T14:02:58.483Z,10.73
2019-03-28T14:05:22.646Z,11.60
2019-03-28T14:07:51.076Z,10.13
2019-03-28T14:10:21.774Z,11.80
2019-03-28T14:12:49.771Z,9.67
2019-03-28T14:15:18.272Z,9.00
2019-03-28T14:17:46.687Z,7.33
2019-03-28T14:20:55.411Z,9.07
2019-03-28T14:23:23.842Z,15.00
2019-03-28T14:25:52.270Z,8.27
2019-03-28T14:30:55.088Z,7.90
2019-03-28T14:33:23.545Z,7.90
2019-03-28T14:35:52.000Z,6.63
2019-03-28T14:38:20.423Z,6.90
2019-03-28T14:40:48.888Z,7.57
2019-03-28T14:43:17.310Z,7.73
2019-03-28T14:45:45.745Z,7.17
2019-03-28T14:48:14.195Z,8.10
2019-03-28T14:51:22.541Z,9.97
2019-03-28T14:53:50.992Z,9.27
2019-03-28T15:00:07.423Z,10.10
2019-03-28T15:02:35.858Z,9.17
2019-03-28T15:05:44.383Z,7.17
2019-03-28T15:08:32.135Z,10.23
2019-03-28T15:11:19.780Z,11.03
2019-03-28T15:13:48.214Z,7.80
2019-03-28T15:16:16.650Z,6.20
2019-03-28T15:21:19.133Z,6.77
2019-03-28T15:24:06.908Z,6.77
2019-03-28T15:26:35.357Z,6.50
2019-03-28T15:29:03.836Z,6.57
2019-03-28T15:31:32.288Z,4.67
2019-03-28T15:34:00.719Z,3.50
2019-03-28T15:36:29.143Z,3.60
2019-03-28T15:38:57.602Z,3.50
2019-03-28T15:41:26.034Z,5.10
2019-03-28T15:43:54.460Z,4.43
2019-03-28T15:46:22.922Z,3.63
2019-03-28T15:48:51.348Z,6.03
2019-03-28T15:51:19.778Z,5.67
2019-03-28T15:53:48.258Z,2.77
2019-03-28T15:56:16.655Z,5.53
2019-03-28T15:58:45.080Z,3.67
2019-03-28T16:01:33.610Z,3.17
2019-03-28T16:04:03.048Z,3.50
2019-03-28T16:06:31.477Z,2.53
2019-03-28T16:11:33.860Z,2.80
2019-03-28T16:14:02.293Z,6.27
2019-03-28T16:16:30.747Z,5.60
2019-03-28T16:19:01.628Z,5.23
2019-03-28T16:21:29.324Z,3.70
2019-03-28T16:23:57.862Z,4.40
2019-03-28T16:26:26.287Z,3.37
2019-03-28T16:28:56.453Z,4.90
2019-03-28T16:31:25.771Z,5.30
2019-03-28T16:34:06.111Z,5.67
2019-03-28T16:36:44.429Z,5.73
2019-03-28T16:39:12.851Z,7.37
2019-03-28T16:42:00.425Z,4.13
2019-03-28T16:44:28.856Z,5.23
2019-03-28T16:46:57.293Z,3.57
2019-03-28T16:49:45.017Z,3.57
2019-03-28T16:52:13.449Z,4.43
2019-03-28T16:54:41.883Z,3.33
2019-03-28T16:57:10.332Z,3.00
2019-03-28T16:59:38.764Z,2.83
2019-03-28T17:05:00.401Z,2.57
2019-03-28T17:10:45.669Z,4.03
2019-03-28T17:13:54.048Z,2.03
2019-03-28T17:16:22.523Z,2.53
2019-03-28T17:18:50.954Z,3.50
2019-03-28T17:21:19.383Z,4.30
2019-03-28T17:24:07.027Z,7.93
2019-03-28T17:26:35.457Z,3.57
2019-03-28T17:29:23.231Z,3.90
2019-03-28T17:31:51.654Z,2.90
2019-03-28T17:34:33.756Z,3.20
2019-03-28T17:36:50.266Z,3.30
2019-03-28T17:39:37.894Z,3.50
2019-03-28T17:42:06.451Z,3.80
2019-03-28T17:44:34.870Z,10.70
2019-03-28T17:47:03.380Z,8.20
2019-03-28T17:52:25.431Z,3.50
2019-03-28T17:55:13.217Z,5.33
2019-03-28T17:57:41.649Z,3.23
2019-03-28T18:00:50.025Z,7.40
2019-03-28T18:03:30.516Z,5.20
2019-03-28T18:06:08.694Z,4.87
2019-03-28T18:08:38.115Z,7.33
2019-03-28T18:11:06.544Z,5.80
2019-03-28T18:13:35.007Z,4.40
2019-03-28T18:16:03.421Z,6.40
2019-03-28T18:18:31.847Z,8.43
2019-03-28T18:21:00.404Z,4.23
2019-03-28T18:23:48.139Z,3.93
2019-03-28T18:26:16.603Z,5.53
2019-03-28T18:28:45.040Z,6.43
2019-03-28T18:31:13.456Z,4.30
2019-03-28T18:33:41.918Z,4.07
2019-03-28T18:36:10.359Z,4.50
2019-03-28T18:38:38.784Z,7.83
2019-03-28T18:41:47.158Z,4.27
2019-03-28T18:44:34.771Z,8.57
2019-03-28T18:47:03.244Z,5.97
2019-03-28T18:49:31.676Z,6.73
2019-03-28T18:52:00.106Z,5.20
2019-03-28T18:54:28.561Z,4.80
2019-03-28T18:57:19.518Z,8.33
2019-03-28T18:59:46.491Z,4.57
2019-03-28T19:02:14.928Z,4.60
2019-03-28T19:04:43.353Z,5.33
2019-03-28T19:07:11.805Z,7.90
2019-03-28T19:09:40.231Z,4.93
2019-03-28T19:12:08.660Z,7.50
2019-03-28T19:14:37.118Z,9.17
2019-03-28T19:17:05.621Z,4.20
2019-03-28T19:19:39.610Z,5.37
2019-03-28T19:22:23.903Z,3.87
2019-03-28T19:24:53.808Z,4.30
2019-03-28T19:27:22.238Z,7.80
2019-03-28T19:29:50.701Z,4.63
2019-03-28T19:32:19.135Z,6.50
2019-03-28T19:35:06.778Z,6.07
2019-03-28T19:38:15.131Z,4.87
2019-03-28T19:43:20.995Z,8.10
2019-03-28T19:46:07.441Z,5.30
2019-03-28T19:48:35.872Z,8.23
2019-03-28T19:51:23.668Z,5.43
2019-03-28T19:53:52.109Z,5.27
2019-03-28T19:56:21.001Z,4.17
2019-03-28T20:01:25.117Z,4.00
2019-03-28T20:03:55.083Z,5.73
2019-03-28T20:06:43.126Z,7.07
2019-03-28T20:11:45.520Z,5.57
2019-03-28T20:16:48.671Z,6.37
2019-03-28T20:19:17.949Z,6.17
2019-03-28T20:21:47.339Z,5.50
2019-03-28T20:24:15.763Z,9.87
2019-03-28T20:26:44.230Z,7.30
2019-03-28T20:29:12.656Z,6.80
2019-03-28T20:31:41.076Z,7.53
2019-03-28T20:34:09.532Z,6.83
2019-03-28T20:36:42.131Z,7.77
2019-03-28T20:39:48.144Z,8.17
2019-03-28T20:42:16.571Z,8.23
2019-03-28T20:44:45.048Z,7.30
2019-03-28T20:49:47.491Z,8.17
2019-03-28T20:52:15.936Z,9.43
2019-03-28T20:54:44.360Z,8.60
2019-03-28T20:57:12.789Z,7.90
2019-03-28T20:59:41.248Z,12.40
2019-03-28T21:02:28.931Z,9.67
2019-03-28T21:11:06.223Z,11.10
2019-03-28T21:13:35.353Z,13.80
2019-03-28T21:16:04.822Z,8.30
2019-03-28T21:18:33.254Z,12.57
2019-03-28T21:21:02.805Z,9.30
2019-03-28T21:23:51.193Z,17.80
2019-03-28T21:29:12.594Z,13.30
2019-03-28T21:31:49.692Z,8.87
2019-03-28T21:34:11.356Z,8.77
2019-03-28T21:37:00.576Z,16.33
2019-03-28T21:39:29.057Z,10.53
2019-03-28T21:41:57.495Z,8.97
2019-03-28T21:44:25.916Z,9.93
2019-03-28T21:46:54.374Z,10.47
2019-03-28T21:49:22.803Z,9.20
2019-03-28T21:51:51.246Z,12.00
2019-03-28T21:54:19.724Z,13.23
2019-03-28T21:56:48.157Z,12.07
2019-03-28T22:02:10.492Z,15.43
2019-03-28T22:04:38.915Z,13.00
2019-03-28T22:07:07.404Z,11.93
2019-03-28T22:09:35.856Z,9.07
2019-03-28T22:14:59.050Z,9.77
2019-03-28T22:17:27.477Z,9.77
2019-03-28T22:19:55.904Z,15.23
2019-03-28T22:24:57.954Z,12.27
2019-03-28T22:27:26.380Z,9.33
2019-03-28T22:30:14.106Z,8.97
2019-03-28T22:32:42.526Z,8.30
2019-03-28T22:35:51.199Z,9.37
2019-03-28T22:38:21.192Z,7.50
2019-03-28T22:40:51.280Z,10.23
2019-03-28T22:45:54.083Z,11.97
2019-03-28T22:50:56.830Z,8.73
2019-03-28T22:53:25.290Z,9.10
2019-03-28T22:55:53.715Z,9.90
2019-03-28T22:58:41.492Z,8.70
2019-03-28T23:01:49.846Z,8.27
2019-03-28T23:04:58.542Z,11.80
2019-03-28T23:07:46.169Z,9.03
2019-03-28T23:10:54.545Z,8.27
2019-03-28T23:13:22.973Z,12.37
2019-03-28T23:15:51.408Z,15.47
2019-03-28T23:20:54.166Z,8.63
2019-03-28T23:23:22.620Z,10.23
2019-03-28T23:26:10.233Z,14.00
2019-03-28T23:28:38.708Z,8.50
2019-03-28T23:31:07.138Z,7.10
2019-03-28T23:33:35.580Z,16.40
2019-03-28T23:36:04.104Z,10.07
2019-03-28T23:38:32.524Z,7.23
2019-03-28T23:41:00.962Z,8.00
2019-03-28T23:43:29.412Z,7.37
2019-03-28T23:45:57.837Z,8.13
2019-03-28T23:48:26.265Z,10.97
2019-03-28T23:50:54.717Z,8.10
2019-03-28T23:53:23.147Z,12.20
2019-03-28T23:55:51.567Z,7.80
2019-03-28T23:58:20.938Z,10.23
